Time;durP1;ratioP1;P1;durP2;ratioP2;P2;SDS_P1;SDS_P2;PMS_P1;PMS_P2;Temp;Humidity;BMP_temperature;BMP_pressure;BME280_temperature;BME280_humidity;BME280_pressure;Samples;Min_cycle;Max_cycle;Signal;HPM_P1;HPM_P2
2022/11/10 00:00:54;;;;;;;13.88;2.83;;;9.50;99.90;;;;;;6181642;23;20383;-81
2022/11/10 00:03:20;;;;;;;13.43;2.58;;;9.40;99.90;;;;;;6210186;23;20154;-81
2022/11/10 00:05:46;;;;;;;15.98;2.60;;;9.50;99.90;;;;;;6183049;23;20449;-81
2022/11/10 00:08:12;;;;;;;14.75;2.92;;;9.50;99.90;;;;;;6182445;23;20012;-82
2022/11/10 00:19:05;;;;;;;13.73;2.90;;;9.50;99.90;;;;;;6181866;23;20523;-81
2022/11/10 00:21:31;;;;;;;14.43;2.90;;;9.50;99.90;;;;;;6208527;23;20016;-82
2022/11/10 00:23:56;;;;;;;13.00;2.78;;;9.50;99.90;;;;;;6209610;23;20028;-81
2022/11/10 00:26:22;;;;;;;13.98;3.03;;;9.40;99.90;;;;;;6211154;23;20023;-82
2022/11/10 00:28:47;;;;;;;15.10;3.10;;;9.40;99.90;;;;;;6211131;23;20092;-82
2022/11/10 00:31:13;;;;;;;16.77;3.47;;;9.40;99.90;;;;;;6210471;23;20346;-81
2022/11/10 00:33:42;;;;;;;15.77;3.03;;;9.40;99.90;;;;;;6211430;23;20066;-81
2022/11/10 00:36:08;;;;;;;15.57;3.30;;;9.40;99.90;;;;;;6185156;23;20013;-82
2022/11/10 00:38:34;;;;;;;12.90;2.72;;;9.30;99.90;;;;;;6211323;23;20019;-81
2022/11/10 00:41:00;;;;;;;12.18;3.25;;;9.30;99.90;;;;;;6211530;23;20009;-81
2022/11/10 00:43:26;;;;;;;11.13;3.10;;;9.30;99.90;;;;;;6160568;23;20021;-82
2022/11/10 00:45:52;;;;;;;12.35;3.33;;;9.30;99.90;;;;;;6184357;23;20016;-81
2022/11/10 00:48:18;;;;;;;14.13;3.05;;;9.40;99.90;;;;;;6160807;23;20044;-82
2022/11/10 00:50:43;;;;;;;14.38;3.10;;;9.40;99.90;;;;;;6210610;23;20040;-81
2022/11/10 00:53:09;;;;;;;11.05;3.28;;;9.40;99.90;;;;;;6185338;23;20047;-81
2022/11/10 00:55:39;;;;;;;19.77;4.38;;;9.30;99.90;;;;;;6184163;23;20452;-81
2022/11/10 00:58:05;;;;;;;20.02;3.42;;;9.30;99.90;;;;;;6184261;23;20059;-81
2022/11/10 01:00:31;;;;;;;11.98;3.50;;;9.30;99.90;;;;;;6184786;23;20012;-81
2022/11/10 01:02:57;;;;;;;13.30;3.63;;;9.30;99.90;;;;;;6211505;23;20016;-81
2022/11/10 01:05:22;;;;;;;16.98;3.53;;;9.30;99.90;;;;;;6184599;23;20087;-81
2022/11/10 01:07:48;;;;;;;18.23;4.70;;;9.30;99.90;;;;;;6186004;23;20047;-81
2022/11/10 01:10:14;;;;;;;11.88;4.40;;;9.30;99.90;;;;;;6214500;23;20019;-81
2022/11/10 01:12:39;;;;;;;16.50;4.40;;;9.20;99.90;;;;;;6186217;23;20024;-81
2022/11/10 01:15:06;;;;;;;11.30;3.65;;;9.20;99.90;;;;;;6213819;23;20432;-81
2022/11/10 01:17:31;;;;;;;18.38;5.10;;;9.20;99.90;;;;;;6186964;23;20017;-81
2022/11/10 01:19:57;;;;;;;16.05;4.43;;;9.20;99.90;;;;;;6187081;23;20015;-81
2022/11/10 01:22:23;;;;;;;17.10;4.20;;;9.20;99.90;;;;;;6187190;23;20024;-81
2022/11/10 01:24:48;;;;;;;14.98;4.88;;;9.20;99.90;;;;;;6186881;23;20023;-81
2022/11/10 01:27:14;;;;;;;18.55;4.85;;;9.10;99.90;;;;;;6186811;23;20020;-81
2022/11/10 01:29:40;;;;;;;15.80;4.95;;;9.20;99.90;;;;;;6213721;23;20012;-81
2022/11/10 01:32:05;;;;;;;22.05;4.82;;;9.10;99.90;;;;;;6161933;23;20016;-80
2022/11/10 01:34:31;;;;;;;21.70;6.32;;;9.10;99.90;;;;;;6213726;23;20017;-81
2022/11/10 01:36:57;;;;;;;14.73;5.60;;;9.10;99.90;;;;;;6186850;23;20020;-81
2022/11/10 01:39:23;;;;;;;14.00;5.65;;;9.10;99.90;;;;;;6186769;23;20043;-81
2022/11/10 01:41:49;;;;;;;21.35;5.53;;;9.00;99.90;;;;;;6187885;23;20040;-81
2022/11/10 01:44:22;;;;;;;18.83;5.38;;;9.10;99.90;;;;;;6214313;23;20032;-81
2022/11/10 01:46:48;;;;;;;18.70;5.82;;;9.00;99.90;;;;;;6186877;23;20012;-81
2022/11/10 01:49:18;;;;;;;16.83;5.03;;;9.00;99.90;;;;;;6187515;23;20116;-81
2022/11/10 01:51:53;;;;;;;17.50;5.30;;;9.10;99.90;;;;;;6213745;23;20020;-82
2022/11/10 01:54:29;;;;;;;20.67;5.13;;;9.00;99.90;;;;;;6187918;23;20337;-81
2022/11/10 01:56:59;;;;;;;14.75;5.88;;;9.00;99.90;;;;;;6186767;23;20337;-82
2022/11/10 01:59:30;;;;;;;19.30;6.18;;;9.00;99.90;;;;;;6186806;23;20005;-81
2022/11/10 02:02:21;;;;;;;16.98;6.13;;;9.00;99.90;;;;;;6186228;23;20063;-81
2022/11/10 02:04:50;;;;;;;21.60;5.82;;;9.00;99.90;;;;;;6160755;23;20040;-81
2022/11/10 02:07:17;;;;;;;23.30;6.82;;;9.00;99.90;;;;;;6213060;23;20016;-81
2022/11/10 02:09:43;;;;;;;20.75;5.80;;;9.00;99.90;;;;;;6185837;23;20070;-81
2022/11/10 02:12:08;;;;;;;17.00;5.50;;;9.00;99.90;;;;;;6184119;23;20008;-81
2022/11/10 02:14:34;;;;;;;16.13;5.90;;;9.00;99.90;;;;;;6211827;23;20015;-81
2022/11/10 02:17:00;;;;;;;23.08;7.53;;;9.00;99.90;;;;;;6186873;23;20348;-80
2022/11/10 02:19:25;;;;;;;26.20;6.47;;;9.00;99.90;;;;;;6186251;23;20444;-81
2022/11/10 02:21:51;;;;;;;17.70;5.78;;;9.00;99.90;;;;;;6213843;23;20011;-81
2022/11/10 02:24:17;;;;;;;21.42;6.70;;;9.00;99.90;;;;;;6186523;23;20024;-81
2022/11/10 02:26:52;;;;;;;17.92;6.28;;;9.00;99.90;;;;;;6212695;23;20080;-81
2022/11/10 02:29:17;;;;;;;18.52;5.95;;;9.00;99.90;;;;;;6212886;23;20488;-81
2022/11/10 02:31:43;;;;;;;19.77;5.97;;;9.00;99.90;;;;;;6186327;23;20017;-81
2022/11/10 02:34:10;;;;;;;25.42;6.90;;;9.00;99.90;;;;;;6212618;23;20008;-81
2022/11/10 02:36:35;;;;;;;19.13;6.20;;;9.00;99.90;;;;;;6186151;23;20108;-81
2022/11/10 02:39:01;;;;;;;18.45;6.03;;;9.00;99.90;;;;;;6210593;23;20094;-81
2022/11/10 02:41:27;;;;;;;20.73;5.95;;;9.00;99.90;;;;;;6211046;23;20048;-81
2022/11/10 02:43:54;;;;;;;17.42;5.82;;;9.00;99.90;;;;;;6184449;23;20453;-81
2022/11/10 02:46:19;;;;;;;13.65;5.00;;;9.10;99.90;;;;;;6185296;23;20088;-79
2022/11/10 02:48:45;;;;;;;20.17;5.65;;;9.10;99.90;;;;;;6161140;23;20064;-81
2022/11/10 02:51:10;;;;;;;21.13;6.15;;;9.10;99.90;;;;;;6211431;23;20017;-81
2022/11/10 02:53:36;;;;;;;16.52;5.05;;;9.20;99.90;;;;;;6159771;23;20017;-81
2022/11/10 02:56:02;;;;;;;15.93;5.30;;;9.10;99.90;;;;;;6184513;23;20344;-81
2022/11/10 02:58:28;;;;;;;19.02;5.25;;;9.10;99.90;;;;;;6212017;23;20072;-81
2022/11/10 03:00:54;;;;;;;22.42;5.50;;;9.10;99.90;;;;;;6212116;23;20019;-81
2022/11/10 03:03:19;;;;;;;16.85;5.28;;;9.10;99.90;;;;;;6212338;23;20460;-81
2022/11/10 03:05:45;;;;;;;15.80;4.80;;;9.10;99.90;;;;;;6186396;23;20064;-82
2022/11/10 03:08:11;;;;;;;23.17;5.20;;;9.00;99.90;;;;;;6185835;23;20098;-81
2022/11/10 03:10:36;;;;;;;16.50;5.03;;;9.10;99.90;;;;;;6185259;23;20404;-80
2022/11/10 03:13:02;;;;;;;19.80;5.57;;;9.10;99.90;;;;;;6212322;23;20004;-81
2022/11/10 03:15:28;;;;;;;17.88;5.22;;;9.10;99.90;;;;;;6212522;23;20038;-81
2022/11/10 03:17:55;;;;;;;23.48;5.20;;;9.10;99.90;;;;;;6161213;23;20020;-81
2022/11/10 03:20:20;;;;;;;12.48;4.63;;;9.10;99.90;;;;;;6212878;23;20004;-81
2022/11/10 03:22:46;;;;;;;17.10;5.43;;;9.10;99.90;;;;;;6212204;23;20078;-81
2022/11/10 03:25:13;;;;;;;17.23;5.20;;;9.10;99.90;;;;;;6160225;23;20034;-80
2022/11/10 03:27:38;;;;;;;13.52;4.32;;;9.10;99.90;;;;;;6212772;23;20009;-81
2022/11/10 03:30:06;;;;;;;18.40;5.53;;;9.10;99.90;;;;;;6184074;23;20038;-81
2022/11/10 03:32:32;;;;;;;17.55;5.05;;;9.10;99.90;;;;;;6211367;23;20008;-81
2022/11/10 03:34:57;;;;;;;16.33;5.45;;;9.10;99.90;;;;;;6185300;23;20092;-81
2022/11/10 03:37:23;;;;;;;19.90;5.18;;;9.10;99.90;;;;;;6211977;23;20048;-81
2022/11/10 03:39:49;;;;;;;23.73;5.60;;;9.10;99.90;;;;;;6211001;23;20498;-82
2022/11/10 03:42:15;;;;;;;18.92;5.10;;;9.10;99.90;;;;;;6184693;23;20087;-81
2022/11/10 03:44:40;;;;;;;18.48;5.00;;;9.00;99.90;;;;;;6185033;23;20016;-80
2022/11/10 03:47:06;;;;;;;19.90;5.72;;;9.00;99.90;;;;;;6210194;23;20024;-80
2022/11/10 03:49:32;;;;;;;22.17;6.20;;;9.00;99.90;;;;;;6158941;23;20012;-81
2022/11/10 03:51:57;;;;;;;16.88;6.30;;;9.10;99.90;;;;;;6185516;23;20020;-81
2022/11/10 03:54:23;;;;;;;12.40;5.18;;;9.00;99.90;;;;;;6185098;23;20020;-81
2022/11/10 03:56:49;;;;;;;26.85;7.78;;;9.00;99.90;;;;;;6185256;23;20021;-81
2022/11/10 03:59:14;;;;;;;18.88;5.53;;;9.00;99.90;;;;;;6211459;23;20009;-81
2022/11/10 04:01:40;;;;;;;16.75;6.10;;;9.00;99.90;;;;;;6210576;23;20067;-81
2022/11/10 04:08:57;;;;;;;26.77;6.43;;;9.00;99.90;;;;;;6184841;23;20069;-81
2022/11/10 04:09:35;;;;;;;20.23;6.75;;;9.00;99.90;;;;;;6183771;23;20025;-81
2022/11/10 04:17:30;;;;;;;26.80;7.57;;;8.90;99.90;;;;;;6184768;23;20042;-81
2022/11/10 04:19:55;;;;;;;23.45;6.90;;;8.90;99.90;;;;;;6184407;23;20348;-81
2022/11/10 04:23:25;;;;;;;22.52;7.40;;;8.90;99.90;;;;;;6183823;23;20017;-81
2022/11/10 04:25:07;;;;;;;29.35;7.93;;;8.90;99.90;;;;;;6184413;23;20021;-80
2022/11/10 04:27:33;;;;;;;19.52;8.13;;;8.90;99.90;;;;;;6211214;23;20004;-81
2022/11/10 04:29:58;;;;;;;20.40;7.60;;;8.90;99.90;;;;;;6211785;23;20008;-81
2022/11/10 04:32:24;;;;;;;25.35;7.35;;;8.90;99.90;;;;;;6184427;23;20013;-81
2022/11/10 04:34:50;;;;;;;21.92;8.32;;;9.00;99.90;;;;;;6184587;23;20017;-80
2022/11/10 04:37:16;;;;;;;29.05;8.57;;;8.90;99.90;;;;;;6184475;23;20020;-81
2022/11/10 04:39:41;;;;;;;32.47;8.82;;;8.90;99.90;;;;;;6210344;23;20031;-81
2022/11/10 04:42:07;;;;;;;22.95;8.40;;;9.00;99.90;;;;;;6185431;23;20025;-81
2022/11/10 04:44:33;;;;;;;28.80;8.45;;;9.00;99.90;;;;;;6187148;23;20028;-81
2022/11/10 04:46:58;;;;;;;22.15;8.15;;;9.10;99.90;;;;;;6160943;23;20040;-81
2022/11/10 04:49:24;;;;;;;22.92;8.15;;;9.10;99.90;;;;;;6185821;23;20372;-80
2022/11/10 04:51:50;;;;;;;24.38;8.27;;;9.10;99.90;;;;;;6212518;23;20005;-81
2022/11/10 04:54:15;;;;;;;23.58;8.25;;;9.10;99.90;;;;;;6213855;23;20021;-81
2022/11/10 04:56:41;;;;;;;25.90;8.52;;;9.10;99.90;;;;;;6186076;23;20021;-81
2022/11/10 04:59:07;;;;;;;25.75;7.93;;;9.10;99.90;;;;;;6186391;23;20017;-81
2022/11/10 05:01:32;;;;;;;26.45;7.70;;;9.10;99.90;;;;;;6185819;23;20023;-80
2022/11/10 05:03:58;;;;;;;28.77;7.90;;;9.10;99.90;;;;;;6213198;23;20016;-81
2022/11/10 05:06:24;;;;;;;27.23;7.90;;;9.10;99.90;;;;;;6212210;23;20020;-81
2022/11/10 05:08:50;;;;;;;29.35;7.03;;;9.20;99.90;;;;;;6212547;23;20020;-81
2022/11/10 05:11:16;;;;;;;28.10;8.00;;;9.20;99.90;;;;;;6212636;23;20020;-82
2022/11/10 05:13:43;;;;;;;25.50;7.88;;;9.20;99.90;;;;;;6161375;23;20023;-81
2022/11/10 05:16:10;;;;;;;22.35;7.65;;;9.20;99.90;;;;;;6213972;23;20333;-81
2022/11/10 05:18:35;;;;;;;24.27;7.65;;;9.20;99.90;;;;;;6186656;23;20023;-81
2022/11/10 05:21:01;;;;;;;32.28;7.38;;;9.30;99.90;;;;;;6212366;23;20035;-81
2022/11/10 05:23:39;;;;;;;18.17;7.35;;;9.30;99.90;;;;;;6186579;23;20445;-81
2022/11/10 05:26:11;;;;;;;29.67;7.90;;;9.30;99.90;;;;;;6187045;23;20016;-81
2022/11/10 05:28:39;;;;;;;23.95;7.03;;;9.30;99.90;;;;;;6186562;23;20016;-81
2022/11/10 05:31:05;;;;;;;24.73;7.50;;;9.30;99.90;;;;;;6161404;23;20012;-81
2022/11/10 05:33:30;;;;;;;26.50;7.20;;;9.30;99.90;;;;;;6212734;23;20060;-81
2022/11/10 05:35:56;;;;;;;19.77;7.32;;;9.30;99.90;;;;;;6211667;23;20020;-81
2022/11/10 05:38:22;;;;;;;18.95;7.03;;;9.30;99.90;;;;;;6185398;23;20131;-81
2022/11/10 05:40:48;;;;;;;25.75;6.53;;;9.30;99.90;;;;;;6185949;23;20346;-80
2022/11/10 05:43:14;;;;;;;23.70;6.45;;;9.30;99.90;;;;;;6186047;23;20115;-81
2022/11/10 05:45:39;;;;;;;26.42;6.47;;;9.30;99.90;;;;;;6161348;23;20055;-81
2022/11/10 05:48:05;;;;;;;25.52;6.40;;;9.30;99.90;;;;;;6212653;23;20022;-81
2022/11/10 05:50:32;;;;;;;27.48;6.43;;;9.30;99.90;;;;;;6183902;23;20322;-81
2022/11/10 05:52:57;;;;;;;24.70;6.78;;;9.40;99.90;;;;;;6181368;23;20024;-81
2022/11/10 05:55:26;;;;;;;23.25;5.82;;;9.40;99.90;;;;;;6212021;23;20017;-82
2022/11/10 05:57:53;;;;;;;25.50;6.57;;;9.30;99.90;;;;;;6212250;23;20065;-81
2022/11/10 06:00:27;;;;;;;24.50;6.53;;;9.40;99.90;;;;;;6211366;23;20012;-81
2022/11/10 06:03:13;;;;;;;24.92;6.72;;;9.40;99.90;;;;;;6185860;23;20019;-81
2022/11/10 06:05:39;;;;;;;20.27;6.22;;;9.40;99.90;;;;;;6212313;23;20024;-82
2022/11/10 06:08:06;;;;;;;26.20;5.95;;;9.40;99.90;;;;;;6185641;23;20016;-82
2022/11/10 06:10:33;;;;;;;25.75;6.32;;;9.40;99.90;;;;;;6185158;23;20017;-82
2022/11/10 06:12:58;;;;;;;21.30;6.43;;;9.40;99.90;;;;;;6211911;23;20020;-81
2022/11/10 06:15:24;;;;;;;16.58;5.32;;;9.40;99.90;;;;;;6184696;23;20017;-81
2022/11/10 06:17:50;;;;;;;22.25;6.43;;;9.40;99.90;;;;;;6184066;23;20013;-81
2022/11/10 06:20:16;;;;;;;20.13;6.30;;;9.50;99.90;;;;;;6211434;23;20333;-81
2022/11/10 06:22:42;;;;;;;21.80;5.95;;;9.50;99.90;;;;;;6184810;23;20441;-80
2022/11/10 06:25:09;;;;;;;26.73;7.72;;;9.50;99.90;;;;;;6184836;23;20090;-81
2022/11/10 06:27:35;;;;;;;27.92;6.95;;;9.50;99.90;;;;;;6157851;23;20016;-81
2022/11/10 06:30:01;;;;;;;17.42;6.18;;;9.50;99.90;;;;;;6211332;23;20028;-81
2022/11/10 06:32:27;;;;;;;31.73;6.82;;;9.40;99.90;;;;;;6184016;23;20043;-81
2022/11/10 06:34:52;;;;;;;23.98;6.00;;;9.50;99.90;;;;;;6184527;23;20380;-81
2022/11/10 06:37:18;;;;;;;30.77;7.60;;;9.50;99.90;;;;;;6209419;23;20020;-81
2022/11/10 06:39:44;;;;;;;28.10;6.53;;;9.50;99.90;;;;;;6179408;23;20476;-81
2022/11/10 06:42:09;;;;;;;25.63;6.50;;;9.50;99.90;;;;;;6181551;23;20016;-82
2022/11/10 06:44:35;;;;;;;23.85;6.25;;;9.40;99.90;;;;;;6181576;23;20040;-81
2022/11/10 06:47:00;;;;;;;21.63;7.05;;;9.50;99.90;;;;;;6181221;23;20017;-81
2022/11/10 06:49:26;;;;;;;22.75;7.28;;;9.40;99.90;;;;;;6181101;23;20021;-81
2022/11/10 06:51:52;;;;;;;30.98;6.90;;;9.40;99.90;;;;;;6205103;23;20013;-82
2022/11/10 06:54:17;;;;;;;21.38;6.10;;;9.50;99.90;;;;;;6178295;23;20075;-80
2022/11/10 06:56:43;;;;;;;21.83;6.63;;;9.50;99.90;;;;;;6179219;23;20018;-82
2022/11/10 06:59:08;;;;;;;22.98;6.72;;;9.50;99.90;;;;;;6179435;23;20063;-81
2022/11/10 07:01:34;;;;;;;21.00;6.28;;;9.50;99.90;;;;;;6177908;23;20009;-80
2022/11/10 07:03:59;;;;;;;25.15;6.50;;;9.50;99.90;;;;;;6180220;23;20017;-80
2022/11/10 07:06:25;;;;;;;27.70;6.93;;;9.60;99.90;;;;;;6180575;23;20377;-82
2022/11/10 07:08:50;;;;;;;24.80;6.75;;;9.60;99.90;;;;;;6179532;23;20099;-82
2022/11/10 07:11:16;;;;;;;23.88;6.68;;;9.60;99.90;;;;;;6179697;23;20021;-81
2022/11/10 07:13:42;;;;;;;24.10;6.75;;;9.60;99.90;;;;;;6180521;23;20017;-82
2022/11/10 07:16:08;;;;;;;18.73;6.47;;;9.60;99.90;;;;;;6180835;23;20013;-81
2022/11/10 07:18:34;;;;;;;22.17;7.07;;;9.70;99.90;;;;;;6180516;23;20342;-81
2022/11/10 07:21:04;;;;;;;22.17;6.63;;;9.70;99.90;;;;;;6181276;23;20009;-81
2022/11/10 07:23:31;;;;;;;23.40;6.53;;;9.70;99.90;;;;;;6179998;23;20394;-81
2022/11/10 07:25:58;;;;;;;24.85;6.15;;;9.70;99.90;;;;;;6181304;23;20076;-81
2022/11/10 07:28:24;;;;;;;22.10;6.05;;;9.80;99.90;;;;;;6180358;23;20019;-81
2022/11/10 07:30:49;;;;;;;31.23;7.30;;;9.80;99.90;;;;;;6180537;23;20021;-81
2022/11/10 07:33:15;;;;;;;24.92;7.20;;;9.80;99.90;;;;;;6179948;23;20075;-81
2022/11/10 07:35:41;;;;;;;20.05;5.68;;;9.90;99.90;;;;;;6180835;23;20016;-82
2022/11/10 07:38:12;;;;;;;24.42;6.38;;;9.90;99.90;;;;;;6180513;23;20102;-83
2022/11/10 07:40:38;;;;;;;21.50;6.28;;;9.90;99.90;;;;;;6179374;23;20048;-82
2022/11/10 07:43:04;;;;;;;25.23;5.93;;;9.90;99.90;;;;;;6178927;23;20055;-82
2022/11/10 07:45:30;;;;;;;23.25;5.95;;;9.80;99.90;;;;;;6179539;23;20015;-81
2022/11/10 07:48:00;;;;;;;25.05;6.18;;;9.80;99.90;;;;;;6181714;23;20020;-82
2022/11/10 07:50:27;;;;;;;22.85;6.22;;;9.80;99.90;;;;;;6180605;23;20012;-82
2022/11/10 07:53:00;;;;;;;20.60;5.82;;;9.80;99.90;;;;;;6181182;23;20052;-82
2022/11/10 07:55:26;;;;;;;21.88;6.03;;;9.80;99.90;;;;;;6181104;23;20074;-82
2022/11/10 07:57:56;;;;;;;21.98;6.10;;;9.80;99.90;;;;;;6179159;23;20097;-81
2022/11/10 08:00:22;;;;;;;22.65;5.88;;;9.80;99.90;;;;;;6177792;23;20009;-82
2022/11/10 08:02:47;;;;;;;20.52;6.97;;;9.80;99.90;;;;;;6181157;23;20449;-82
2022/11/10 08:05:13;;;;;;;26.38;6.75;;;9.80;99.90;;;;;;6181042;23;20020;-81
2022/11/10 08:07:39;;;;;;;25.85;6.50;;;9.80;99.90;;;;;;6181082;23;20024;-82
2022/11/10 08:10:06;;;;;;;24.83;6.45;;;9.80;99.90;;;;;;6181167;23;20013;-81
2022/11/10 08:12:31;;;;;;;25.40;7.20;;;9.80;99.90;;;;;;6179003;23;20044;-82
2022/11/10 08:14:57;;;;;;;29.00;7.07;;;9.80;99.90;;;;;;6180128;23;20465;-82
2022/11/10 08:17:22;;;;;;;20.10;7.05;;;9.80;99.90;;;;;;6179241;23;20446;-82
2022/11/10 08:19:48;;;;;;;25.42;7.28;;;9.80;99.90;;;;;;6181260;23;20016;-82
2022/11/10 08:22:14;;;;;;;28.27;7.50;;;9.80;99.90;;;;;;6180655;23;20021;-80
2022/11/10 08:24:39;;;;;;;29.85;7.45;;;9.80;99.90;;;;;;6181063;23;20009;-84
2022/11/10 08:27:05;;;;;;;25.77;7.40;;;9.80;99.90;;;;;;6178008;23;20055;-83
2022/11/10 08:29:30;;;;;;;24.55;7.50;;;9.80;99.90;;;;;;6178996;23;20456;-84
2022/11/10 08:31:56;;;;;;;24.08;7.63;;;9.80;99.90;;;;;;6181286;23;20071;-83
2022/11/10 08:34:22;;;;;;;18.35;7.13;;;9.90;99.90;;;;;;6180096;23;20075;-83
2022/11/10 08:36:50;;;;;;;25.45;7.82;;;9.90;99.90;;;;;;6178248;23;20053;-84
2022/11/10 08:39:15;;;;;;;21.73;7.13;;;10.00;99.90;;;;;;6181858;23;20017;-84
2022/11/10 08:41:41;;;;;;;23.73;6.78;;;10.00;99.90;;;;;;6184091;23;20016;-84
2022/11/10 08:44:07;;;;;;;27.63;7.53;;;10.10;99.90;;;;;;6210513;23;20013;-83
2022/11/10 08:46:32;;;;;;;27.33;7.75;;;10.20;99.90;;;;;;6209929;23;20012;-84
2022/11/10 08:48:58;;;;;;;28.15;7.38;;;10.20;99.90;;;;;;6210826;23;20022;-83
2022/11/10 08:51:23;;;;;;;30.33;8.15;;;10.30;99.90;;;;;;6183435;23;20020;-82
2022/11/10 08:53:49;;;;;;;25.42;8.15;;;10.40;99.90;;;;;;6209964;23;20021;-83
2022/11/10 08:56:14;;;;;;;22.55;7.45;;;10.40;99.90;;;;;;6210690;23;20020;-83
2022/11/10 08:58:40;;;;;;;23.92;6.90;;;10.50;99.90;;;;;;6209361;23;20059;-83
2022/11/10 09:01:10;;;;;;;23.27;6.97;;;10.50;99.90;;;;;;6210544;23;20020;-83
2022/11/10 09:03:36;;;;;;;24.75;6.32;;;10.50;99.90;;;;;;6210846;23;20337;-83
2022/11/10 09:06:02;;;;;;;26.58;7.70;;;10.50;99.90;;;;;;6209296;23;20016;-83
2022/11/10 09:08:27;;;;;;;21.80;6.35;;;10.50;99.90;;;;;;6209428;23;20434;-82
2022/11/10 09:10:53;;;;;;;24.85;6.93;;;10.50;99.90;;;;;;6208320;23;20020;-83
2022/11/10 09:13:22;;;;;;;22.23;6.55;;;10.50;99.90;;;;;;6209450;23;20067;-82
2022/11/10 09:15:48;;;;;;;21.92;6.13;;;10.60;99.90;;;;;;6210348;23;20059;-84
2022/11/10 09:18:14;;;;;;;23.45;6.20;;;10.60;99.90;;;;;;6210472;23;20441;-84
2022/11/10 09:20:40;;;;;;;24.38;6.15;;;10.70;99.90;;;;;;6210628;23;20054;-83
2022/11/10 09:23:08;;;;;;;22.83;5.95;;;10.70;99.90;;;;;;6209763;23;20013;-83
2022/11/10 09:25:34;;;;;;;25.00;6.22;;;10.80;99.90;;;;;;6210534;23;20020;-84
2022/11/10 09:28:00;;;;;;;23.88;5.80;;;10.80;99.90;;;;;;6184134;23;20030;-82
2022/11/10 09:30:26;;;;;;;22.30;5.22;;;10.90;99.90;;;;;;6185184;23;20055;-82
2022/11/10 09:32:59;;;;;;;23.92;6.22;;;11.00;99.90;;;;;;6184660;23;20413;-81
2022/11/10 09:35:26;;;;;;;21.75;6.13;;;11.10;99.90;;;;;;6212399;23;20020;-82
2022/11/10 09:37:51;;;;;;;25.67;6.50;;;11.30;99.90;;;;;;6212554;23;20012;-82
2022/11/10 09:40:39;;;;;;;24.42;6.18;;;11.40;99.90;;;;;;6212070;23;20464;-82
2022/11/10 09:43:09;;;;;;;25.02;5.80;;;11.50;99.90;;;;;;6211008;23;20016;-83
2022/11/10 09:45:41;;;;;;;15.95;5.55;;;11.60;99.90;;;;;;6212103;23;20008;-82
2022/11/10 09:48:17;;;;;;;18.02;5.18;;;11.70;99.90;;;;;;6210525;23;20016;-82
2022/11/10 09:50:54;;;;;;;22.15;4.82;;;11.80;99.90;;;;;;6185307;23;20371;-82
2022/11/10 09:53:46;;;;;;;21.23;5.15;;;11.80;99.90;;;;;;6211394;23;20012;-82
2022/11/10 09:56:19;;;;;;;17.17;4.55;;;11.90;99.90;;;;;;6210258;23;20016;-83
2022/11/10 09:58:45;;;;;;;22.30;5.00;;;11.90;99.90;;;;;;6185168;23;20020;-83
2022/11/10 10:01:56;;;;;;;20.00;4.85;;;11.90;99.90;;;;;;6212017;23;20017;-83
2022/11/10 10:04:51;;;;;;;20.52;4.40;;;11.90;99.90;;;;;;6129210;23;20429;-82
2022/11/10 10:07:23;;;;;;;;;;;12.00;99.90;;;;;;6185889;23;20064;-83
2022/11/10 10:10:00;;;;;;;22.80;5.15;;;12.00;99.90;;;;;;6210927;23;19916;-83
2022/11/10 10:13:03;;;;;;;19.60;4.97;;;12.20;99.90;;;;;;6185267;23;20047;-83
2022/11/10 10:15:31;;;;;;;21.42;4.85;;;12.20;99.90;;;;;;6211998;23;20013;-83
2022/11/10 10:18:14;;;;;;;19.60;4.72;;;12.30;99.90;;;;;;6211891;23;20013;-83
2022/11/10 10:21:14;;;;;;;17.00;4.03;;;12.40;99.90;;;;;;6210656;23;20015;-83
2022/11/10 10:23:51;;;;;;;15.70;4.10;;;12.40;99.90;;;;;;6211347;23;20012;-83
2022/11/10 10:26:22;;;;;;;13.85;3.67;;;12.40;99.90;;;;;;6183669;23;20021;-83
2022/11/10 10:28:50;;;;;;;22.88;4.78;;;12.40;99.90;;;;;;6211836;23;20121;-83
2022/11/10 10:31:25;;;;;;;17.10;3.85;;;12.50;99.90;;;;;;6210936;23;20009;-83
2022/11/10 10:33:52;;;;;;;18.27;4.55;;;12.60;99.90;;;;;;6211913;23;20024;-83
2022/11/10 10:36:21;;;;;;;18.33;4.60;;;12.70;99.90;;;;;;6184349;23;20016;-83
2022/11/10 10:38:52;;;;;;;21.25;4.78;;;12.80;99.90;;;;;;6210595;23;20083;-83
2022/11/10 10:41:31;;;;;;;26.38;5.65;;;12.80;99.90;;;;;;6211534;23;20017;-83
2022/11/10 10:43:59;;;;;;;18.77;4.93;;;12.80;99.90;;;;;;6184917;23;20099;-83
2022/11/10 10:46:27;;;;;;;21.85;4.85;;;12.70;99.90;;;;;;6183690;23;20016;-83
2022/11/10 10:49:20;;;;;;;28.55;7.22;;;12.80;99.90;;;;;;6211003;23;20022;-82
2022/11/10 10:51:47;;;;;;;24.50;7.53;;;12.90;99.90;;;;;;6194472;23;20039;-82
2022/11/10 10:54:39;;;;;;;26.83;7.82;;;12.90;99.90;;;;;;6210830;23;20012;-82
2022/11/10 10:57:23;;;;;;;29.42;8.00;;;13.00;99.90;;;;;;6178195;23;20434;-82
2022/11/10 10:59:50;;;;;;;26.48;8.02;;;13.10;99.90;;;;;;6184465;23;20017;-83
2022/11/10 11:02:27;;;;;;;25.23;6.82;;;13.10;99.90;;;;;;6187023;23;20059;-83
2022/11/10 11:05:26;;;;;;;19.52;5.85;;;13.20;99.90;;;;;;6187199;23;20031;-83
2022/11/10 11:07:57;;;;;;;20.63;5.80;;;13.30;99.90;;;;;;6187114;23;20012;-83
2022/11/10 11:10:29;;;;;;;20.88;6.50;;;13.40;99.90;;;;;;6214849;23;20020;-82
2022/11/10 11:13:19;;;;;;;23.75;5.25;;;13.40;99.90;;;;;;6187217;23;20074;-82
2022/11/10 11:15:56;;;;;;;16.48;4.78;;;13.50;99.90;;;;;;6214161;23;20083;-82
2022/11/10 11:18:24;;;;;;;15.98;4.10;;;13.60;99.90;;;;;;6214615;23;20008;-82
2022/11/10 11:21:20;;;;;;;16.98;5.20;;;13.70;99.90;;;;;;6214257;23;20013;-82
2022/11/10 11:24:00;;;;;;;21.00;5.38;;;13.80;99.90;;;;;;6212056;23;20537;-82
2022/11/10 11:26:48;;;;;;;17.00;4.38;;;14.10;99.90;;;;;;6187663;23;20048;-83
2022/11/10 11:29:26;;;;;;;19.63;4.53;;;14.30;99.90;;;;;;6215071;23;20032;-86
2022/11/10 11:32:08;;;;;;;13.02;3.80;;;14.40;99.90;;;;;;6185143;23;20019;-85
2022/11/10 11:34:54;;;;;;;16.60;3.63;;;14.40;99.90;;;;;;6187990;23;20095;-85
2022/11/10 11:37:56;;;;;;;21.38;3.42;;;14.30;99.90;;;;;;6214830;23;20398;-85
2022/11/10 11:40:56;;;;;;;14.55;2.92;;;14.30;99.90;;;;;;6188128;23;20445;-84
2022/11/10 11:43:34;;;;;;;17.10;4.50;;;14.40;99.90;;;;;;6214200;23;20008;-85
2022/11/10 11:46:13;;;;;;;17.75;4.25;;;14.40;99.90;;;;;;6213772;23;20433;-85
2022/11/10 11:49:09;;;;;;;15.55;3.13;;;14.30;99.90;;;;;;6163015;23;20020;-85
2022/11/10 11:52:01;;;;;;;17.85;3.67;;;14.30;99.90;;;;;;6213694;23;20087;-84
2022/11/10 11:55:03;;;;;;;15.60;3.63;;;14.40;99.90;;;;;;6214799;23;20060;-86
2022/11/10 11:57:57;;;;;;;19.67;4.25;;;14.40;99.90;;;;;;6162108;23;20012;-84
2022/11/10 12:00:23;;;;;;;21.23;4.65;;;14.40;99.90;;;;;;6210971;23;20017;-85
2022/11/10 12:03:26;;;;;;;17.77;3.63;;;14.40;99.90;;;;;;6183590;23;20008;-84
2022/11/10 12:06:07;;;;;;;15.98;3.55;;;14.50;99.90;;;;;;6210671;23;20107;-85
2022/11/10 12:09:11;;;;;;;16.83;3.80;;;14.60;99.90;;;;;;6211876;23;20036;-85
2022/11/10 12:12:09;;;;;;;24.85;5.13;;;14.60;99.90;;;;;;6206197;23;20512;-85
2022/11/10 12:15:27;;;;;;;13.75;3.13;;;14.60;99.90;;;;;;6136743;23;20024;-85
2022/11/10 12:18:19;;;;;;;19.67;3.75;;;14.50;99.90;;;;;;6203225;23;20017;-85
2022/11/10 12:20:58;;;;;;;15.25;2.97;;;14.50;99.90;;;;;;6205017;23;20020;-85
2022/11/10 12:23:33;;;;;;;22.20;3.38;;;14.40;99.90;;;;;;6185594;23;20017;-85
2022/11/10 12:26:22;;;;;;;15.05;3.72;;;14.40;99.90;;;;;;6212236;23;20021;-84
2022/11/10 12:28:53;;;;;;;16.00;3.42;;;14.30;99.90;;;;;;6212315;23;20012;-85
2022/11/10 12:31:24;;;;;;;12.45;2.78;;;14.30;99.90;;;;;;6211763;23;20086;-85
2022/11/10 12:34:07;;;;;;;12.32;2.90;;;14.20;99.90;;;;;;6185369;23;20016;-85
2022/11/10 12:36:33;;;;;;;19.95;6.00;;;14.10;99.90;;;;;;6211451;23;20084;-85
2022/11/10 12:39:02;;;;;;;21.52;3.28;;;14.10;99.90;;;;;;6184798;23;20047;-84
2022/11/10 12:41:36;;;;;;;14.30;2.90;;;14.10;99.90;;;;;;6212310;23;20485;-85
2022/11/10 12:44:29;;;;;;;24.00;3.60;;;14.00;99.90;;;;;;6185262;23;20031;-85
2022/11/10 12:46:58;;;;;;;15.05;2.30;;;14.00;99.90;;;;;;6211606;23;20063;-85
2022/11/10 12:49:29;;;;;;;17.90;2.75;;;13.90;99.90;;;;;;6184911;23;20095;-84
2022/11/10 12:52:50;;;;;;;14.98;2.33;;;13.90;99.90;;;;;;6212129;23;20011;-85
2022/11/10 12:55:16;;;;;;;18.83;2.85;;;13.80;99.90;;;;;;6198020;23;20020;-85
2022/11/10 12:57:43;;;;;;;16.23;2.85;;;13.80;99.90;;;;;;6160407;23;20445;-86
2022/11/10 13:00:27;;;;;;;19.20;2.83;;;13.80;99.90;;;;;;6212273;23;20024;-84
2022/11/10 13:02:54;;;;;;;;;;;13.80;99.90;;;;;;6186535;23;20015;-85
2022/11/10 13:05:37;;;;;;;15.77;2.58;;;13.70;99.90;;;;;;6212418;23;19999;-85
2022/11/10 13:08:23;;;;;;;24.95;3.85;;;13.70;99.90;;;;;;6213676;23;20066;-84
2022/11/10 13:11:14;;;;;;;16.27;3.55;;;13.70;99.90;;;;;;6214021;23;20318;-84
2022/11/10 13:13:52;;;;;;;18.75;3.00;;;13.70;99.90;;;;;;6166682;23;20051;-84
2022/11/10 13:16:36;;;;;;;16.90;2.85;;;13.70;99.90;;;;;;6212957;23;20433;-84